createdAt,value
2023-01-09T00:00:48.177Z,0.70
2023-01-09T00:03:15.013Z,0.80
2023-01-09T00:05:41.765Z,1.10
2023-01-09T00:08:08.644Z,1.00
2023-01-09T00:10:35.530Z,1.10
2023-01-09T00:13:02.398Z,0.85
2023-01-09T00:15:29.209Z,0.98
2023-01-09T00:17:55.936Z,1.15
2023-01-09T00:20:22.811Z,1.00
2023-01-09T00:22:49.622Z,1.20
2023-01-09T00:25:16.435Z,1.02
2023-01-09T00:27:43.212Z,1.17
2023-01-09T00:30:11.240Z,1.20
2023-01-09T00:32:38.124Z,1.30
2023-01-09T00:35:05.278Z,1.40
2023-01-09T00:37:31.995Z,1.40
2023-01-09T00:39:58.801Z,1.40
2023-01-09T00:42:28.272Z,1.30
2023-01-09T00:44:59.289Z,1.60
2023-01-09T00:47:32.823Z,1.40
2023-01-09T00:50:03.350Z,1.45
2023-01-09T00:52:33.787Z,1.50
2023-01-09T00:55:00.810Z,1.45
2023-01-09T00:57:27.882Z,1.33
2023-01-09T00:59:54.679Z,1.55
2023-01-09T01:02:21.659Z,1.38
2023-01-09T01:05:07.122Z,1.30
2023-01-09T01:07:40.098Z,1.60
2023-01-09T01:10:16.223Z,1.50
2023-01-09T01:12:44.381Z,1.80
2023-01-09T01:15:11.704Z,1.70
2023-01-09T01:17:40.085Z,1.80
2023-01-09T01:20:11.524Z,1.60
2023-01-09T01:22:38.340Z,2.20
2023-01-09T01:25:05.789Z,2.20
2023-01-09T01:27:32.573Z,2.00
2023-01-09T01:29:59.344Z,2.28
2023-01-09T01:32:26.097Z,2.30
2023-01-09T01:34:52.790Z,2.38
2023-01-09T01:37:19.601Z,2.50
2023-01-09T01:39:46.549Z,2.50
2023-01-09T01:42:13.954Z,2.80
2023-01-09T01:44:58.787Z,2.70
2023-01-09T01:47:37.706Z,3.40
2023-01-09T01:50:09.892Z,3.70
2023-01-09T01:52:38.361Z,3.40
2023-01-09T01:55:08.541Z,3.50
2023-01-09T01:57:36.780Z,4.03
2023-01-09T02:00:05.121Z,3.60
2023-01-09T02:02:33.339Z,3.90
2023-01-09T02:05:04.898Z,3.90
2023-01-09T02:07:31.761Z,3.50
2023-01-09T02:09:59.935Z,3.83
2023-01-09T02:12:28.538Z,3.80
2023-01-09T02:15:05.035Z,3.60
2023-01-09T02:18:09.090Z,3.60
2023-01-09T02:20:52.529Z,3.72
2023-01-09T02:23:44.142Z,3.60
2023-01-09T02:26:48.499Z,3.65
2023-01-09T02:29:37.210Z,3.58
2023-01-09T02:32:22.968Z,3.00
2023-01-09T02:34:55.166Z,3.00
2023-01-09T02:37:56.369Z,3.17
2023-01-09T02:40:45.777Z,2.92
2023-01-09T02:43:13.635Z,2.80
2023-01-09T02:45:40.345Z,2.75
2023-01-09T02:48:10.168Z,2.80
2023-01-09T02:50:55.890Z,2.80
2023-01-09T02:54:09.062Z,2.80
2023-01-09T02:56:44.765Z,3.15
2023-01-09T02:59:22.139Z,3.08
2023-01-09T03:02:10.650Z,2.92
2023-01-09T03:04:47.467Z,3.10
2023-01-09T03:07:30.670Z,3.08
2023-01-09T03:10:08.407Z,3.10
2023-01-09T03:12:36.789Z,2.60
2023-01-09T03:15:06.718Z,2.65
2023-01-09T03:17:39.552Z,3.03
2023-01-09T03:20:10.145Z,2.90
2023-01-09T03:22:39.219Z,3.00
2023-01-09T03:25:06.506Z,3.00
2023-01-09T03:27:33.351Z,3.03
2023-01-09T03:30:00.165Z,3.15
2023-01-09T03:32:27.819Z,2.72
2023-01-09T03:34:55.149Z,3.20
2023-01-09T03:37:22.119Z,3.10
2023-01-09T03:39:48.833Z,3.20
2023-01-09T03:42:15.604Z,3.00
2023-01-09T03:44:42.362Z,3.10
2023-01-09T03:47:09.503Z,3.00
2023-01-09T03:49:36.264Z,3.00
2023-01-09T03:52:03.029Z,2.67
2023-01-09T03:54:29.801Z,3.00
2023-01-09T03:56:56.631Z,2.88
2023-01-09T03:59:25.497Z,2.60
2023-01-09T04:01:52.384Z,2.47
2023-01-09T04:04:19.210Z,2.30
2023-01-09T04:06:45.881Z,2.30
2023-01-09T04:09:12.945Z,2.20
2023-01-09T04:11:39.694Z,2.10
2023-01-09T04:14:06.424Z,2.10
2023-01-09T04:16:33.231Z,2.13
2023-01-09T04:19:00.291Z,2.00
2023-01-09T04:21:27.344Z,2.10
2023-01-09T04:23:54.046Z,1.92
2023-01-09T04:26:20.728Z,1.95
2023-01-09T04:28:48.071Z,1.88
2023-01-09T04:31:14.928Z,1.70
2023-01-09T04:33:41.766Z,1.80
2023-01-09T04:36:08.972Z,2.00
2023-01-09T04:38:35.759Z,1.80
2023-01-09T04:41:02.724Z,1.80
2023-01-09T04:43:29.444Z,1.95
2023-01-09T04:45:56.355Z,1.77
2023-01-09T04:48:23.125Z,1.80
2023-01-09T04:50:49.862Z,1.70
2023-01-09T04:53:16.575Z,1.40
2023-01-09T04:55:43.332Z,1.55
2023-01-09T04:58:10.055Z,1.90
2023-01-09T05:00:36.865Z,1.63
2023-01-09T05:03:03.739Z,1.77
2023-01-09T05:05:30.676Z,1.60
2023-01-09T05:07:57.460Z,1.90
2023-01-09T05:10:24.555Z,1.65
2023-01-09T05:12:52.510Z,1.90
2023-01-09T05:15:19.328Z,1.73
2023-01-09T05:17:46.186Z,1.45
2023-01-09T05:20:12.951Z,1.25
2023-01-09T05:22:39.684Z,1.40
2023-01-09T05:25:06.858Z,1.40
2023-01-09T05:27:33.653Z,1.58
2023-01-09T05:30:00.379Z,1.63
2023-01-09T05:32:27.617Z,1.30
2023-01-09T05:34:54.302Z,1.77
2023-01-09T05:37:21.134Z,1.58
2023-01-09T05:39:47.832Z,1.77
2023-01-09T05:42:14.566Z,1.88
2023-01-09T05:44:41.328Z,1.40
2023-01-09T05:47:08.023Z,1.55
2023-01-09T05:49:34.754Z,1.70
2023-01-09T05:52:01.545Z,1.52
2023-01-09T05:54:28.305Z,1.67
2023-01-09T05:56:55.153Z,2.00
2023-01-09T05:59:21.893Z,1.60
2023-01-09T06:01:49.981Z,1.40
2023-01-09T06:04:16.722Z,1.45
2023-01-09T06:06:43.737Z,1.38
2023-01-09T06:09:10.792Z,1.33
2023-01-09T06:11:38.525Z,1.40
2023-01-09T06:14:06.115Z,1.60
2023-01-09T06:16:33.318Z,1.87
2023-01-09T06:19:00.135Z,1.53
2023-01-09T06:21:29.268Z,1.85
2023-01-09T06:23:56.712Z,2.13
2023-01-09T06:26:23.952Z,1.75
2023-01-09T06:28:50.849Z,1.52
2023-01-09T06:31:17.841Z,1.77
2023-01-09T06:33:44.642Z,1.90
2023-01-09T06:36:11.441Z,1.48
2023-01-09T06:38:38.151Z,1.58
2023-01-09T06:41:08.498Z,1.77
2023-01-09T06:43:35.385Z,2.05
2023-01-09T06:46:02.325Z,1.90
2023-01-09T06:48:29.096Z,1.85
2023-01-09T06:50:55.983Z,1.70
2023-01-09T06:53:22.751Z,2.00
2023-01-09T06:55:49.857Z,1.98
2023-01-09T06:58:16.697Z,2.33
2023-01-09T07:00:43.632Z,1.90
2023-01-09T07:03:11.565Z,2.10
2023-01-09T07:05:41.995Z,2.28
2023-01-09T07:08:09.584Z,2.65
2023-01-09T07:10:36.343Z,2.20
2023-01-09T07:13:03.201Z,2.53
2023-01-09T07:15:29.945Z,2.88
2023-01-09T07:17:56.763Z,2.50
2023-01-09T07:20:23.562Z,2.72
2023-01-09T07:22:50.283Z,3.10
2023-01-09T07:25:17.398Z,3.30
2023-01-09T07:27:44.134Z,3.60
2023-01-09T07:30:11.498Z,3.60
2023-01-09T07:32:40.383Z,4.10
2023-01-09T07:35:09.097Z,4.10
2023-01-09T07:37:35.914Z,3.60
2023-01-09T07:40:03.488Z,3.70
2023-01-09T07:42:30.208Z,3.65
2023-01-09T07:44:57.068Z,1.85
2023-01-09T07:47:23.782Z,1.73
2023-01-09T07:49:50.531Z,1.73
2023-01-09T07:52:17.317Z,1.60
2023-01-09T07:54:44.148Z,1.02
2023-01-09T07:57:10.956Z,0.70
2023-01-09T07:59:37.749Z,0.80
2023-01-09T08:02:05.738Z,0.50
2023-01-09T08:04:33.010Z,0.70
2023-01-09T08:06:59.770Z,1.00
2023-01-09T08:09:26.548Z,1.17
2023-01-09T08:11:53.287Z,1.35
2023-01-09T08:14:20.047Z,1.77
2023-01-09T08:16:46.751Z,1.50
2023-01-09T08:19:13.589Z,1.40
2023-01-09T08:21:41.147Z,1.60
2023-01-09T08:24:10.671Z,1.40
2023-01-09T08:26:37.495Z,1.30
2023-01-09T08:29:04.313Z,1.45
2023-01-09T08:31:31.122Z,1.35
2023-01-09T08:33:57.955Z,1.40
2023-01-09T08:36:24.826Z,1.50
2023-01-09T08:38:51.636Z,1.80
2023-01-09T08:41:36.911Z,1.83
2023-01-09T08:44:22.282Z,2.20
2023-01-09T08:47:07.129Z,2.25
2023-01-09T08:49:38.849Z,2.00
2023-01-09T08:52:06.568Z,1.73
2023-01-09T08:54:34.059Z,1.55
2023-01-09T08:57:00.821Z,1.63
2023-01-09T08:59:27.699Z,1.50
2023-01-09T09:01:54.487Z,1.20
2023-01-09T09:04:21.373Z,1.70
2023-01-09T09:06:48.389Z,1.27
2023-01-09T09:09:15.389Z,1.30
2023-01-09T09:11:42.474Z,1.33
2023-01-09T09:14:27.809Z,1.50
2023-01-09T09:16:54.802Z,1.50
2023-01-09T09:19:21.853Z,1.38
2023-01-09T09:21:48.770Z,1.73
2023-01-09T09:24:15.531Z,1.83
2023-01-09T09:26:44.505Z,1.70
2023-01-09T09:29:11.602Z,1.67
2023-01-09T09:31:39.009Z,1.90
2023-01-09T09:34:07.164Z,1.60
2023-01-09T09:36:34.034Z,1.60
2023-01-09T09:39:02.549Z,2.13
2023-01-09T09:42:06.986Z,2.20
2023-01-09T09:45:10.945Z,1.80
2023-01-09T09:47:43.481Z,2.10
2023-01-09T09:50:39.031Z,1.65
2023-01-09T09:53:11.724Z,0.98
2023-01-09T09:55:40.637Z,0.90
2023-01-09T09:58:37.971Z,1.00
2023-01-09T10:01:06.737Z,1.10
2023-01-09T10:03:59.128Z,1.15
2023-01-09T10:06:30.703Z,1.17
2023-01-09T10:09:16.915Z,1.30
2023-01-09T10:12:09.942Z,1.52
2023-01-09T10:14:36.724Z,1.40
2023-01-09T10:17:19.213Z,1.35
2023-01-09T10:19:48.799Z,1.50
2023-01-09T10:22:41.862Z,1.50
2023-01-09T10:25:35.660Z,1.80
2023-01-09T10:28:27.392Z,1.50
2023-01-09T10:31:06.387Z,1.45
2023-01-09T10:33:59.774Z,1.40
2023-01-09T10:37:00.069Z,1.50
2023-01-09T10:39:39.244Z,1.55
2023-01-09T10:42:18.356Z,1.67
2023-01-09T10:44:58.370Z,1.23
2023-01-09T10:47:30.304Z,1.15
2023-01-09T10:49:58.371Z,1.52
2023-01-09T10:52:39.944Z,1.50
2023-01-09T10:55:40.835Z,1.42
2023-01-09T10:58:18.784Z,1.77
2023-01-09T11:00:48.061Z,1.70
2023-01-09T11:03:18.826Z,1.42
2023-01-09T11:05:54.788Z,1.73
2023-01-09T11:08:42.756Z,1.40
2023-01-09T11:11:10.736Z,1.77
2023-01-09T11:13:38.515Z,1.45
2023-01-09T11:16:23.973Z,1.50
2023-01-09T11:18:55.701Z,1.58
2023-01-09T11:21:40.653Z,2.00
2023-01-09T11:24:19.623Z,1.50
2023-01-09T11:26:48.294Z,1.50
2023-01-09T11:29:18.791Z,1.60
2023-01-09T11:31:59.718Z,1.90
2023-01-09T11:34:31.517Z,1.77
2023-01-09T11:37:10.443Z,2.22
2023-01-09T11:39:45.369Z,1.60
2023-01-09T11:42:45.302Z,1.87
2023-01-09T11:45:21.418Z,1.67
2023-01-09T11:47:48.184Z,2.05
2023-01-09T11:50:24.062Z,1.88
2023-01-09T11:53:19.624Z,1.70
2023-01-09T11:55:51.147Z,1.65
2023-01-09T11:58:22.266Z,1.73
2023-01-09T12:01:23.989Z,2.00
2023-01-09T12:04:12.033Z,2.10
2023-01-09T12:07:04.752Z,1.90
2023-01-09T12:09:57.006Z,2.17
2023-01-09T12:13:06.936Z,2.05
2023-01-09T12:15:48.414Z,2.30
2023-01-09T12:18:38.560Z,2.33
2023-01-09T12:21:32.654Z,2.10
2023-01-09T12:24:18.040Z,2.05
2023-01-09T12:27:12.830Z,2.33
2023-01-09T12:30:01.273Z,2.10
2023-01-09T12:32:36.725Z,1.83
2023-01-09T12:35:44.382Z,2.17
2023-01-09T12:38:47.034Z,2.17
2023-01-09T12:41:37.154Z,1.92
2023-01-09T12:44:41.734Z,2.53
2023-01-09T12:47:41.243Z,1.90
2023-01-09T12:50:26.864Z,2.20
2023-01-09T12:53:05.984Z,2.20
2023-01-09T12:55:36.596Z,2.20
2023-01-09T12:58:27.103Z,2.35
2023-01-09T13:00:55.629Z,2.05
2023-01-09T13:03:31.569Z,2.13
2023-01-09T13:06:00.437Z,2.45
2023-01-09T13:08:35.030Z,1.67
2023-01-09T13:11:22.291Z,2.00
2023-01-09T13:13:57.181Z,1.83
2023-01-09T13:16:33.993Z,2.05
2023-01-09T13:19:29.779Z,2.08
2023-01-09T13:21:58.700Z,1.80
2023-01-09T13:24:35.204Z,1.87
2023-01-09T13:27:12.983Z,2.00
2023-01-09T13:29:50.049Z,2.00
2023-01-09T13:32:55.182Z,2.20
2023-01-09T13:35:22.117Z,2.03
2023-01-09T13:37:53.762Z,1.92
2023-01-09T13:40:20.596Z,2.00
2023-01-09T13:42:55.882Z,1.90
2023-01-09T13:45:26.203Z,1.80
2023-01-09T13:48:11.145Z,1.90
2023-01-09T13:50:39.173Z,1.73
2023-01-09T13:53:18.345Z,2.10
2023-01-09T13:55:57.513Z,2.00
2023-01-09T13:58:48.564Z,2.08
2023-01-09T14:01:41.907Z,1.90
2023-01-09T14:04:23.456Z,2.33
2023-01-09T14:07:17.598Z,1.92
2023-01-09T14:09:52.821Z,1.85
2023-01-09T14:12:21.666Z,1.95
2023-01-09T14:14:49.010Z,1.80
2023-01-09T14:17:37.463Z,1.65
2023-01-09T14:20:23.425Z,2.20
2023-01-09T14:23:18.020Z,1.83
2023-01-09T14:25:45.017Z,1.77
2023-01-09T14:28:28.701Z,1.95
2023-01-09T14:30:55.407Z,2.03
2023-01-09T14:33:23.528Z,1.83
2023-01-09T14:36:05.250Z,2.13
2023-01-09T14:38:46.548Z,1.98
2023-01-09T14:41:43.212Z,1.95
2023-01-09T14:44:28.073Z,2.20
2023-01-09T14:46:57.054Z,2.13
2023-01-09T14:49:39.220Z,2.50
2023-01-09T14:52:20.519Z,2.08
2023-01-09T14:54:49.856Z,1.90
2023-01-09T14:57:25.403Z,2.08
2023-01-09T15:00:14.863Z,1.88
2023-01-09T15:02:42.853Z,2.40
2023-01-09T15:05:14.387Z,2.00
2023-01-09T15:07:48.637Z,2.90
2023-01-09T15:10:45.653Z,2.05
2023-01-09T15:13:35.304Z,2.33
2023-01-09T15:16:07.320Z,2.20
2023-01-09T15:18:43.317Z,2.08
2023-01-09T15:21:19.848Z,1.95
2023-01-09T15:23:46.653Z,2.45
2023-01-09T15:26:33.731Z,2.75
2023-01-09T15:29:04.748Z,2.20
2023-01-09T15:31:31.960Z,2.57
2023-01-09T15:33:58.913Z,2.27
2023-01-09T15:36:28.196Z,1.83
2023-01-09T15:38:55.421Z,2.10
2023-01-09T15:41:49.007Z,2.45
2023-01-09T15:44:26.192Z,1.98
2023-01-09T15:46:57.683Z,2.17
2023-01-09T15:49:25.373Z,2.17
2023-01-09T15:51:52.994Z,2.00
2023-01-09T15:54:31.270Z,2.15
2023-01-09T15:57:26.090Z,2.15
2023-01-09T15:59:53.962Z,2.22
2023-01-09T16:02:41.360Z,1.88
2023-01-09T16:05:14.078Z,1.80
2023-01-09T16:07:51.451Z,2.40
2023-01-09T16:10:31.856Z,2.28
2023-01-09T16:12:58.935Z,2.40
2023-01-09T16:15:27.270Z,1.80
2023-01-09T16:18:15.834Z,2.83
2023-01-09T16:20:43.389Z,2.10
2023-01-09T16:23:29.173Z,2.38
2023-01-09T16:26:13.296Z,1.83
2023-01-09T16:28:42.366Z,1.60
2023-01-09T16:31:26.014Z,1.60
2023-01-09T16:34:06.420Z,1.88
2023-01-09T16:36:36.792Z,2.17
2023-01-09T16:39:04.252Z,1.50
2023-01-09T16:41:49.703Z,1.70
2023-01-09T16:44:19.061Z,1.80
2023-01-09T16:46:46.237Z,1.80
2023-01-09T16:49:22.006Z,2.00
2023-01-09T16:51:49.375Z,1.40
2023-01-09T16:54:16.887Z,1.67
2023-01-09T16:56:48.488Z,1.65
2023-01-09T16:59:24.546Z,2.10
2023-01-09T17:01:52.837Z,2.20
2023-01-09T17:04:20.318Z,2.03
2023-01-09T17:06:49.037Z,1.10
2023-01-09T17:09:18.881Z,1.63
2023-01-09T17:11:45.932Z,1.30
2023-01-09T17:14:14.097Z,1.40
2023-01-09T17:16:43.330Z,1.80
2023-01-09T17:19:17.795Z,1.30
2023-01-09T17:21:44.849Z,1.60
2023-01-09T17:24:30.519Z,1.48
2023-01-09T17:27:16.389Z,1.50
2023-01-09T17:29:44.381Z,1.70
2023-01-09T17:32:15.865Z,1.83
2023-01-09T17:34:43.157Z,1.48
2023-01-09T17:37:17.809Z,1.70
2023-01-09T17:39:45.317Z,2.10
2023-01-09T17:42:12.416Z,1.73
2023-01-09T17:44:39.217Z,1.83
2023-01-09T17:47:07.099Z,1.70
2023-01-09T17:49:34.144Z,2.10
2023-01-09T17:52:02.935Z,2.20
2023-01-09T17:54:30.614Z,2.50
2023-01-09T17:56:59.191Z,1.90
2023-01-09T17:59:27.577Z,1.75
2023-01-09T18:01:54.437Z,1.77
2023-01-09T18:04:21.233Z,1.85
2023-01-09T18:06:49.494Z,1.37
2023-01-09T18:09:17.912Z,1.70
2023-01-09T18:11:45.134Z,1.50
2023-01-09T18:14:13.753Z,1.63
2023-01-09T18:16:42.553Z,1.65
2023-01-09T18:19:09.343Z,1.30
2023-01-09T18:21:36.175Z,1.35
2023-01-09T18:24:02.904Z,1.60
2023-01-09T18:26:29.796Z,1.67
2023-01-09T18:28:58.935Z,1.35
2023-01-09T18:31:27.625Z,1.73
2023-01-09T18:33:56.760Z,1.55
2023-01-09T18:36:30.026Z,1.90
2023-01-09T18:38:59.212Z,1.80
2023-01-09T18:41:26.387Z,2.00
2023-01-09T18:43:55.268Z,2.00
2023-01-09T18:46:26.091Z,1.90
2023-01-09T18:48:54.081Z,1.90
2023-01-09T18:51:22.118Z,2.40
2023-01-09T18:53:49.654Z,3.10
2023-01-09T18:56:17.352Z,2.22
2023-01-09T18:58:44.205Z,2.38
2023-01-09T19:01:11.113Z,3.10
2023-01-09T19:03:37.985Z,2.67
2023-01-09T19:06:05.147Z,3.30
2023-01-09T19:08:35.179Z,2.50
2023-01-09T19:11:02.303Z,5.68
2023-01-09T19:13:33.781Z,6.38
2023-01-09T19:16:01.767Z,4.28
2023-01-09T19:18:30.798Z,4.15
2023-01-09T19:20:57.634Z,3.60
2023-01-09T19:23:24.753Z,4.20
2023-01-09T19:25:53.828Z,4.07
2023-01-09T19:28:21.059Z,3.60
2023-01-09T19:30:54.133Z,3.97
2023-01-09T19:33:20.866Z,3.15
2023-01-09T19:35:54.091Z,3.15
2023-01-09T19:38:23.062Z,2.92
2023-01-09T19:40:50.304Z,2.60
2023-01-09T19:43:26.218Z,2.75
2023-01-09T19:45:56.522Z,2.97
2023-01-09T19:48:27.486Z,2.80
2023-01-09T19:51:02.998Z,3.00
2023-01-09T19:53:30.769Z,2.80
2023-01-09T19:56:07.659Z,3.17
2023-01-09T19:58:36.920Z,3.10
2023-01-09T20:01:12.338Z,3.88
2023-01-09T20:03:43.460Z,4.30
2023-01-09T20:06:17.564Z,2.83
2023-01-09T20:08:45.651Z,3.20
2023-01-09T20:11:12.512Z,3.40
2023-01-09T20:13:39.528Z,3.20
2023-01-09T20:16:07.108Z,3.88
2023-01-09T20:18:35.497Z,4.65
2023-01-09T20:21:03.471Z,4.72
2023-01-09T20:23:33.146Z,14.65
2023-01-09T20:26:01.376Z,9.30
2023-01-09T20:28:28.427Z,5.23
2023-01-09T20:30:55.380Z,4.53
2023-01-09T20:33:22.608Z,3.95
2023-01-09T20:35:49.640Z,4.10
2023-01-09T20:38:16.401Z,3.38
2023-01-09T20:40:45.898Z,4.15
2023-01-09T20:43:13.151Z,2.95
2023-01-09T20:45:40.708Z,2.88
2023-01-09T20:48:08.356Z,2.97
2023-01-09T20:50:35.306Z,3.10
2023-01-09T20:53:03.306Z,2.70
2023-01-09T20:55:30.234Z,2.40
2023-01-09T20:57:57.102Z,2.80
2023-01-09T21:00:27.441Z,2.30
2023-01-09T21:02:54.513Z,2.47
2023-01-09T21:05:21.277Z,2.50
2023-01-09T21:07:48.451Z,2.40
2023-01-09T21:10:15.550Z,2.35
2023-01-09T21:12:42.549Z,2.53
2023-01-09T21:15:11.583Z,2.67
2023-01-09T21:17:40.198Z,2.40
2023-01-09T21:20:10.270Z,2.70
2023-01-09T21:22:37.996Z,2.72
2023-01-09T21:25:05.839Z,2.40
2023-01-09T21:27:36.059Z,2.17
2023-01-09T21:30:04.857Z,2.73
2023-01-09T21:32:32.808Z,2.50
2023-01-09T21:35:04.158Z,2.60
2023-01-09T21:37:36.957Z,2.40
2023-01-09T21:40:06.346Z,2.10
2023-01-09T21:42:52.192Z,2.45
2023-01-09T21:45:37.989Z,2.22
2023-01-09T21:48:06.070Z,2.72
2023-01-09T21:50:36.461Z,2.65
2023-01-09T21:53:04.071Z,2.55
2023-01-09T21:55:32.183Z,2.40
2023-01-09T21:58:01.386Z,3.00
2023-01-09T22:00:28.580Z,3.03
2023-01-09T22:02:56.065Z,2.13
2023-01-09T22:05:27.232Z,2.67
2023-01-09T22:07:55.986Z,2.60
2023-01-09T22:10:22.874Z,2.55
2023-01-09T22:13:09.849Z,2.75
2023-01-09T22:15:36.665Z,2.60
2023-01-09T22:18:03.639Z,2.20
2023-01-09T22:20:32.229Z,2.80
2023-01-09T22:22:59.138Z,2.60
2023-01-09T22:25:26.004Z,3.20
2023-01-09T22:27:52.892Z,2.20
2023-01-09T22:30:19.685Z,2.85
2023-01-09T22:32:46.481Z,2.50
2023-01-09T22:35:13.291Z,3.00
2023-01-09T22:37:40.386Z,2.63
2023-01-09T22:40:07.897Z,2.50
2023-01-09T22:42:34.727Z,2.60
2023-01-09T22:45:01.472Z,2.30
2023-01-09T22:47:28.422Z,2.95
2023-01-09T22:49:55.469Z,2.53
2023-01-09T22:52:22.665Z,2.57
2023-01-09T22:54:49.538Z,2.30
2023-01-09T22:57:16.453Z,2.55
2023-01-09T22:59:43.403Z,2.50
2023-01-09T23:02:10.333Z,2.10
2023-01-09T23:04:37.139Z,2.15
2023-01-09T23:07:03.981Z,2.15
2023-01-09T23:09:30.900Z,2.60
2023-01-09T23:12:03.554Z,2.22
2023-01-09T23:14:32.518Z,2.42
2023-01-09T23:16:59.253Z,2.50
2023-01-09T23:19:26.000Z,2.38
2023-01-09T23:21:52.709Z,2.20
2023-01-09T23:24:19.626Z,2.35
2023-01-09T23:26:47.522Z,2.03
2023-01-09T23:29:14.505Z,2.15
2023-01-09T23:31:41.515Z,2.22
2023-01-09T23:34:08.422Z,2.35
2023-01-09T23:36:35.775Z,2.37
2023-01-09T23:39:04.143Z,2.63
2023-01-09T23:41:49.331Z,2.30
2023-01-09T23:44:16.177Z,2.45
2023-01-09T23:46:42.868Z,2.50
2023-01-09T23:49:10.332Z,2.35
2023-01-09T23:51:37.272Z,2.50
2023-01-09T23:54:04.265Z,2.40
2023-01-09T23:56:33.831Z,2.30
2023-01-09T23:59:01.995Z,2.55
